Time;durP1;ratioP1;P1;durP2;ratioP2;P2;SDS_P1;SDS_P2;PMS_P1;PMS_P2;Temp;Humidity;BMP_temperature;BMP_pressure;BME280_temperature;BME280_humidity;BME280_pressure;Samples;Min_cycle;Max_cycle;Signal;HPM_P1;HPM_P2
2023/01/31 00:00:01;;;;;;;11.32;4.63;;;;;;;1.40;100.00;101964.41;5082664;28;20034;-54
2023/01/31 00:02:26;;;;;;;11.90;4.07;;;;;;;1.41;100.00;101969.53;5081715;28;20381;-55
2023/01/31 00:04:51;;;;;;;19.65;6.10;;;;;;;1.48;100.00;101964.78;5073870;28;20020;-56
2023/01/31 00:07:17;;;;;;;9.65;4.35;;;;;;;1.50;100.00;101953.28;5077902;28;20035;-57
2023/01/31 00:09:42;;;;;;;8.45;3.90;;;;;;;1.49;100.00;101948.16;5077821;28;20027;-54
2023/01/31 00:12:07;;;;;;;9.15;3.75;;;;;;;1.48;100.00;101933.41;5086494;28;20024;-52
2023/01/31 00:14:33;;;;;;;13.60;4.72;;;;;;;1.50;100.00;101937.59;5078587;28;20028;-52
2023/01/31 00:16:58;;;;;;;10.82;4.10;;;;;;;1.52;100.00;101922.66;5081735;28;20036;-55
2023/01/31 00:19:24;;;;;;;11.13;3.92;;;;;;;1.54;100.00;101917.31;5078709;28;20024;-52
2023/01/31 00:21:49;;;;;;;14.95;5.07;;;;;;;1.58;100.00;101925.81;5080568;28;20042;-54
2023/01/31 00:24:14;;;;;;;16.30;4.30;;;;;;;1.63;100.00;101921.16;5083168;28;20460;-55
2023/01/31 00:26:40;;;;;;;11.02;4.90;;;;;;;1.66;100.00;101916.56;5088258;28;20195;-52
2023/01/31 00:29:06;;;;;;;10.70;4.65;;;;;;;1.65;100.00;101925.34;5075822;28;20428;-50
2023/01/31 00:31:33;;;;;;;12.30;4.53;;;;;;;1.69;100.00;101924.19;5082614;28;20411;-56
2023/01/31 00:33:59;;;;;;;9.77;4.03;;;;;;;1.70;100.00;101912.81;5080568;28;20032;-53
2023/01/31 00:36:27;;;;;;;10.50;3.95;;;;;;;1.75;100.00;101909.88;5083601;28;20062;-55
2023/01/31 00:38:55;;;;;;;12.13;4.38;;;;;;;1.75;100.00;101899.41;5091714;28;20019;-55
2023/01/31 00:41:22;;;;;;;7.47;3.67;;;;;;;1.79;100.00;101910.53;5089517;28;20380;-56
2023/01/31 00:43:48;;;;;;;14.35;4.40;;;;;;;1.75;100.00;101921.16;5079103;28;20068;-54
2023/01/31 00:46:15;;;;;;;9.20;4.53;;;;;;;1.69;100.00;101920.75;5079314;28;20035;-54
2023/01/31 00:48:40;;;;;;;13.02;4.28;;;;;;;1.62;100.00;101911.59;5083010;28;20023;-51
2023/01/31 00:51:06;;;;;;;11.93;4.82;;;;;;;1.61;100.00;101909.94;5090144;28;20108;-55
2023/01/31 00:53:32;;;;;;;12.43;4.72;;;;;;;1.63;100.00;101911.53;5088559;28;20081;-53
2023/01/31 00:56:05;;;;;;;10.27;3.55;;;;;;;1.64;100.00;101902.72;5092288;28;20027;-53
2023/01/31 00:58:30;;;;;;;14.20;4.07;;;;;;;1.68;100.00;101914.69;5082172;28;20036;-57
2023/01/31 01:00:55;;;;;;;14.57;4.28;;;;;;;1.71;100.00;101897.97;5074863;28;20031;-52
2023/01/31 01:03:21;;;;;;;12.02;4.95;;;;;;;1.75;100.00;101875.88;5087243;28;20474;-56
2023/01/31 01:05:46;;;;;;;13.10;3.90;;;;;;;1.80;100.00;101880.81;5079037;28;20465;-53
2023/01/31 01:08:12;;;;;;;15.10;4.00;;;;;;;1.92;100.00;101891.31;5087954;28;20067;-52
2023/01/31 01:10:37;;;;;;;8.32;3.88;;;;;;;2.05;100.00;101893.97;5080372;28;20025;-55
2023/01/31 01:13:04;;;;;;;9.85;4.15;;;;;;;2.09;100.00;101887.63;5087720;28;20024;-56
2023/01/31 01:15:30;;;;;;;9.43;3.55;;;;;;;2.16;100.00;101890.66;5078077;28;21009;-56
2023/01/31 01:17:55;;;;;;;10.25;3.05;;;;;;;2.16;100.00;101890.66;5096719;28;20024;-55
2023/01/31 01:20:20;;;;;;;7.55;3.45;;;;;;;2.19;100.00;101882.59;5083642;28;20032;-52
2023/01/31 01:22:46;;;;;;;7.20;4.50;;;;;;;2.12;100.00;101887.41;5078752;28;20036;-55
2023/01/31 01:25:11;;;;;;;5.93;2.10;;;;;;;2.20;100.00;101884.28;5083647;28;20158;-52
2023/01/31 01:27:37;;;;;;;6.40;2.50;;;;;;;2.28;100.00;101878.53;5085208;28;20484;-56
2023/01/31 01:30:04;;;;;;;5.80;1.95;;;;;;;2.39;100.00;101866.38;5088882;28;20032;-53
2023/01/31 01:32:29;;;;;;;7.00;2.97;;;;;;;2.47;100.00;101876.34;5072077;28;20494;-53
2023/01/31 01:34:54;;;;;;;7.78;1.25;;;;;;;2.57;100.00;101882.63;5081173;28;20055;-53
2023/01/31 01:37:20;;;;;;;7.55;1.65;;;;;;;2.72;100.00;101891.22;5086052;28;20477;-53
2023/01/31 01:39:50;;;;;;;5.35;1.70;;;;;;;2.88;100.00;101882.31;5086458;28;20036;-52
2023/01/31 01:42:21;;;;;;;6.07;2.03;;;;;;;2.99;100.00;101883.22;5072945;28;20137;-52
2023/01/31 01:44:52;;;;;;;5.32;0.75;;;;;;;3.11;100.00;101871.03;5085409;28;20035;-56
2023/01/31 01:47:32;;;;;;;12.60;1.52;;;;;;;3.20;100.00;101873.03;5082770;28;20485;-51
2023/01/31 01:50:24;;;;;;;15.63;1.70;;;;;;;3.41;100.00;101856.72;5085586;28;20035;-52
2023/01/31 01:52:52;;;;;;;;;;;;;;;3.69;100.00;101852.88;5077384;28;20024;-54
2023/01/31 01:55:27;;;;;;;1.73;1.02;;;;;;;3.77;100.00;101847.06;5088494;28;20361;-55
2023/01/31 01:57:57;;;;;;;3.28;0.88;;;;;;;3.85;100.00;101839.50;5091226;28;20624;-54
2023/01/31 02:00:26;;;;;;;4.40;0.95;;;;;;;3.93;100.00;101831.88;5078531;28;20059;-50
2023/01/31 02:02:56;;;;;;;3.28;1.50;;;;;;;3.99;100.00;101847.16;5079625;28;20025;-54
2023/01/31 02:05:27;;;;;;;4.47;1.08;;;;;;;4.03;100.00;101843.38;5088408;28;20397;-53
2023/01/31 02:07:54;;;;;;;0.82;0.65;;;;;;;4.11;100.00;101840.19;5086465;28;20027;-54
2023/01/31 02:10:29;;;;;;;5.18;1.35;;;;;;;4.21;100.00;101835.03;5088211;28;20039;-51
2023/01/31 02:12:54;;;;;;;1.92;0.60;;;;;;;4.26;100.00;101838.16;5075378;28;20438;-53
2023/01/31 02:15:21;;;;;;;8.00;1.13;;;;;;;4.28;100.00;101836.25;5079058;28;20111;-56
2023/01/31 02:17:47;;;;;;;3.85;1.90;;;;;;;4.31;100.00;101836.88;5088541;28;20080;-51
2023/01/31 02:20:32;;;;;;;3.72;0.63;;;;;;;4.35;100.00;101840.91;5093035;28;20035;-54
2023/01/31 02:23:18;;;;;;;6.35;0.90;;;;;;;4.35;100.00;101840.09;5084023;28;20156;-50
2023/01/31 02:25:57;;;;;;;3.97;0.45;;;;;;;4.35;100.00;101829.59;5085245;28;20414;-52
2023/01/31 02:28:25;;;;;;;3.72;0.70;;;;;;;4.61;100.00;101824.13;5086932;28;20036;-54
2023/01/31 02:31:01;;;;;;;5.55;0.40;;;;;;;4.60;100.00;101820.66;5087643;28;20466;-52
2023/01/31 02:33:34;;;;;;;4.53;1.27;;;;;;;4.58;100.00;101812.06;5083373;28;20068;-51
2023/01/31 02:36:08;;;;;;;2.33;0.43;;;;;;;4.63;100.00;101811.72;5091244;28;20023;-52
2023/01/31 02:38:42;;;;;;;6.82;1.33;;;;;;;4.74;100.00;101822.19;5090312;28;20035;-53
2023/01/31 02:41:30;;;;;;;6.03;0.50;;;;;;;4.80;100.00;101816.44;5098104;28;20093;-55
2023/01/31 02:47:00;;;;;;;8.57;0.98;;;;;;;5.08;100.00;101822.16;5085474;28;20350;-53
2023/01/31 02:49:36;;;;;;;2.55;0.65;;;;;;;5.10;100.00;101810.56;5087474;28;20102;-55
2023/01/31 02:52:15;;;;;;;9.23;0.63;;;;;;;5.33;100.00;101808.72;5089217;28;20495;-52
2023/01/31 02:57:50;;;;;;;9.73;0.90;;;;;;;5.54;100.00;101808.75;5084525;28;20035;-53
2023/01/31 03:00:17;;;;;;;10.15;1.67;;;;;;;5.58;100.00;101804.94;5087644;28;20028;-56
2023/01/31 03:02:43;;;;;;;5.65;0.82;;;;;;;5.64;100.00;101822.00;5083950;28;20380;-51
2023/01/31 03:05:13;;;;;;;8.27;0.75;;;;;;;5.62;100.00;101797.59;5089374;28;20043;-51
2023/01/31 03:07:41;;;;;;;1.10;0.63;;;;;;;5.63;100.00;101799.28;5086977;28;20099;-55
2023/01/31 03:10:09;;;;;;;8.23;1.17;;;;;;;5.68;100.00;101802.38;5100059;28;20023;-55
2023/01/31 03:12:48;;;;;;;12.90;3.22;;;;;;;5.76;100.00;101788.59;5096237;28;20036;-56
2023/01/31 03:17:30;;;;;;;5.25;1.17;;;;;;;5.94;100.00;101787.09;5093385;28;20037;-55
2023/01/31 03:18:29;;;;;;;7.28;0.77;;;;;;;5.87;100.00;101781.44;5080055;28;20044;-52
2023/01/31 03:21:13;;;;;;;2.80;0.40;;;;;;;5.78;100.00;101776.97;5089268;28;20097;-52
2023/01/31 03:23:42;;;;;;;12.38;0.82;;;;;;;5.84;100.00;101786.16;5090884;28;20020;-53
2023/01/31 03:26:08;;;;;;;8.10;0.93;;;;;;;5.87;100.00;101778.81;5092281;28;20047;-51
2023/01/31 03:28:40;;;;;;;5.82;0.50;;;;;;;5.95;100.00;101770.31;5093843;28;20524;-53
2023/01/31 03:31:22;;;;;;;6.47;0.68;;;;;;;5.95;100.00;101774.75;5079872;28;20031;-51
2023/01/31 03:33:51;;;;;;;7.38;2.08;;;;;;;6.02;100.00;101768.84;5081333;28;20491;-49
2023/01/31 03:36:36;;;;;;;15.65;1.65;;;;;;;6.15;100.00;101763.38;5081445;28;20058;-53
2023/01/31 03:39:12;;;;;;;3.42;0.70;;;;;;;6.21;100.00;101762.81;5080522;28;20052;-56
2023/01/31 03:41:40;;;;;;;6.38;2.38;;;;;;;6.18;100.00;101763.09;5082633;28;20127;-51
2023/01/31 03:44:14;;;;;;;6.55;0.75;;;;;;;6.17;100.00;101756.19;5086509;28;20044;-55
2023/01/31 03:46:44;;;;;;;7.45;0.80;;;;;;;6.20;100.00;101741.91;5077753;28;20028;-50
2023/01/31 03:49:14;;;;;;;8.53;1.50;;;;;;;6.34;100.00;101739.72;5085797;28;20032;-51
2023/01/31 03:51:47;;;;;;;6.00;0.77;;;;;;;6.35;100.00;101730.06;5092969;28;20333;-56
2023/01/31 03:54:19;;;;;;;6.75;2.10;;;;;;;6.37;100.00;101735.16;5086199;28;20037;-53
2023/01/31 03:56:54;;;;;;;6.88;1.35;;;;;;;6.40;100.00;101734.91;5091109;28;20346;-52
2023/01/31 03:59:24;;;;;;;5.45;0.52;;;;;;;6.40;100.00;101734.91;5093232;28;20040;-52
2023/01/31 04:01:54;;;;;;;7.63;0.30;;;;;;;6.37;100.00;101738.63;5086024;28;20027;-54
2023/01/31 04:04:38;;;;;;;2.72;0.98;;;;;;;6.45;100.00;101741.44;5087893;28;20031;-49
2023/01/31 04:07:05;;;;;;;15.70;0.70;;;;;;;6.50;100.00;101751.59;5083333;28;20036;-52
2023/01/31 04:09:31;;;;;;;14.60;2.95;;;;;;;6.64;100.00;101737.22;5084457;28;20090;-54
2023/01/31 04:12:00;;;;;;;6.05;1.23;;;;;;;6.55;100.00;101739.66;5094084;28;20032;-53
2023/01/31 04:14:25;;;;;;;2.78;0.15;;;;;;;6.58;100.00;101749.09;5091487;28;20031;-52
2023/01/31 04:16:50;;;;;;;4.82;2.83;;;;;;;6.60;100.00;101741.91;5101534;28;20019;-54
2023/01/31 04:19:16;;;;;;;3.72;0.93;;;;;;;6.57;100.00;101746.63;5081664;27;20032;-54
2023/01/31 04:21:41;;;;;;;10.38;0.70;;;;;;;6.78;100.00;101753.47;5096677;28;20030;-55
2023/01/31 04:24:08;;;;;;;6.18;1.15;;;;;;;6.80;100.00;101753.34;5078233;28;20032;-53
2023/01/31 04:26:34;;;;;;;12.27;1.25;;;;;;;6.79;100.00;101746.41;5079420;28;20035;-52
2023/01/31 04:28:59;;;;;;;11.40;1.20;;;;;;;6.80;100.00;101744.59;5084208;28;20048;-49
2023/01/31 04:31:24;;;;;;;4.35;0.93;;;;;;;6.82;100.00;101742.69;5097965;28;20515;-54
2023/01/31 04:33:50;;;;;;;3.42;0.22;;;;;;;6.69;100.00;101741.13;5083197;28;20028;-53
2023/01/31 04:36:15;;;;;;;9.55;1.50;;;;;;;6.78;100.00;101735.00;5081357;28;20033;-56
2023/01/31 04:38:40;;;;;;;7.00;1.40;;;;;;;6.82;100.00;101740.03;5086654;28;20024;-52
2023/01/31 04:41:06;;;;;;;8.68;1.00;;;;;;;6.77;100.00;101743.06;5084162;28;20469;-56
2023/01/31 04:43:31;;;;;;;4.22;0.98;;;;;;;6.72;100.00;101740.84;5085766;28;20055;-54
2023/01/31 04:45:56;;;;;;;4.38;1.35;;;;;;;6.64;100.00;101742.50;5087039;28;20115;-55
2023/01/31 04:48:22;;;;;;;13.30;1.60;;;;;;;6.58;100.00;101750.91;5091378;28;20116;-50
2023/01/31 04:50:47;;;;;;;10.38;2.15;;;;;;;6.48;100.00;101753.50;5085683;28;20343;-51
2023/01/31 04:53:12;;;;;;;9.63;3.03;;;;;;;6.52;100.00;101760.19;5087358;28;20171;-53
2023/01/31 04:55:38;;;;;;;5.63;0.95;;;;;;;6.65;100.00;101749.41;5083424;28;20067;-51
2023/01/31 04:58:03;;;;;;;4.95;0.50;;;;;;;6.64;100.00;101747.75;5081981;28;20056;-53
2023/01/31 05:00:29;;;;;;;9.00;0.75;;;;;;;6.62;100.00;101745.25;5085320;28;20120;-56
2023/01/31 05:02:54;;;;;;;2.58;1.40;;;;;;;6.61;100.00;101748.88;5086334;28;20039;-50
2023/01/31 05:05:20;;;;;;;3.55;0.22;;;;;;;6.59;100.00;101745.53;5083449;28;20036;-56
2023/01/31 05:07:45;;;;;;;8.00;1.45;;;;;;;6.59;100.00;101747.34;5089666;28;20040;-55
2023/01/31 05:10:11;;;;;;;7.88;0.95;;;;;;;6.65;100.00;101754.69;5085773;28;20100;-53
2023/01/31 05:12:37;;;;;;;5.10;0.57;;;;;;;6.71;100.00;101748.88;5084065;28;20355;-53
2023/01/31 05:15:03;;;;;;;4.70;1.17;;;;;;;6.74;100.00;101751.25;5082048;28;20107;-52
2023/01/31 05:17:29;;;;;;;6.80;1.23;;;;;;;6.64;100.00;101753.88;5092961;28;20751;-51
2023/01/31 05:19:56;;;;;;;5.25;0.57;;;;;;;6.58;100.00;101749.09;5075530;28;20036;-54
2023/01/31 05:22:21;;;;;;;7.25;0.90;;;;;;;6.58;100.00;101748.28;5097922;28;20532;-56
2023/01/31 05:24:47;;;;;;;12.20;0.73;;;;;;;6.61;100.00;101734.81;5086069;28;20039;-52
2023/01/31 05:27:13;;;;;;;6.07;0.50;;;;;;;6.70;100.00;101739.31;5091047;28;20071;-53
2023/01/31 05:29:38;;;;;;;4.40;0.75;;;;;;;6.70;100.00;101724.31;5085909;28;20034;-54
2023/01/31 05:32:04;;;;;;;5.82;1.35;;;;;;;6.59;100.00;101713.06;5087924;28;20028;-52
2023/01/31 05:34:31;;;;;;;6.90;1.13;;;;;;;6.58;100.00;101714.84;5085231;28;20024;-51
2023/01/31 05:36:58;;;;;;;8.07;2.85;;;;;;;6.45;100.00;101711.63;5089497;28;20028;-54
2023/01/31 05:39:23;;;;;;;5.53;0.70;;;;;;;6.30;100.00;101719.09;5075362;28;20346;-50
2023/01/31 05:41:48;;;;;;;4.32;0.80;;;;;;;6.41;100.00;101726.03;5087502;28;20031;-56
2023/01/31 05:44:15;;;;;;;6.13;1.27;;;;;;;6.47;100.00;101728.97;5072221;28;20111;-54
2023/01/31 05:46:40;;;;;;;7.05;2.40;;;;;;;6.60;100.00;101718.19;5076851;28;20020;-55
2023/01/31 05:49:06;;;;;;;1.10;0.50;;;;;;;6.66;100.00;101712.41;5078043;28;20631;-55
2023/01/31 05:51:31;;;;;;;9.23;1.10;;;;;;;6.81;100.00;101712.00;5082047;28;20744;-52
2023/01/31 05:53:57;;;;;;;2.17;0.80;;;;;;;6.93;100.00;101710.91;5088592;28;20433;-53
2023/01/31 05:56:23;;;;;;;4.00;2.05;;;;;;;6.95;100.00;101693.97;5077715;28;20036;-55
2023/01/31 05:58:49;;;;;;;4.45;0.73;;;;;;;6.99;100.00;101699.81;5081122;28;20028;-52
2023/01/31 06:01:17;;;;;;;6.55;0.77;;;;;;;7.06;100.00;101695.66;5093820;28;20024;-53
2023/01/31 06:03:42;;;;;;;8.93;1.17;;;;;;;7.05;100.00;101690.50;5089624;28;20032;-54
2023/01/31 06:06:07;;;;;;;10.32;1.83;;;;;;;7.10;100.00;101697.06;5084335;28;20097;-52
2023/01/31 06:08:33;;;;;;;9.18;0.50;;;;;;;7.17;100.00;101692.03;5095759;28;20500;-53
2023/01/31 06:11:01;;;;;;;4.47;0.80;;;;;;;7.20;100.00;101697.88;5087174;28;20470;-55
2023/01/31 06:13:26;;;;;;;8.93;1.27;;;;;;;7.17;100.00;101692.88;5088098;28;20027;-54
2023/01/31 06:15:52;;;;;;;5.80;0.63;;;;;;;7.19;100.00;101692.72;5088323;28;20100;-56
2023/01/31 06:18:17;;;;;;;5.95;0.55;;;;;;;7.21;100.00;101690.78;5086832;28;20047;-50
2023/01/31 06:20:43;;;;;;;6.97;0.90;;;;;;;7.16;100.00;101691.22;5088963;28;20470;-54
2023/01/31 06:23:08;;;;;;;8.15;1.50;;;;;;;7.20;100.00;101683.84;5086291;28;20064;-56
2023/01/31 06:25:33;;;;;;;4.15;1.02;;;;;;;7.22;100.00;101690.63;5081040;28;20127;-52
2023/01/31 06:27:59;;;;;;;5.43;1.17;;;;;;;7.29;100.00;101696.19;5089277;28;20059;-56
2023/01/31 06:30:24;;;;;;;4.20;0.60;;;;;;;7.25;100.00;101697.44;5081325;28;20381;-52
2023/01/31 06:32:49;;;;;;;7.72;0.73;;;;;;;7.14;100.00;101698.41;5083714;28;20028;-55
2023/01/31 06:35:15;;;;;;;4.07;1.13;;;;;;;7.21;100.00;101686.34;5082901;28;20477;-53
2023/01/31 06:37:40;;;;;;;1.92;0.70;;;;;;;7.26;100.00;101693.03;5084347;28;20031;-53
2023/01/31 06:40:06;;;;;;;5.93;0.75;;;;;;;7.27;100.00;101687.59;5081031;28;20058;-50
2023/01/31 06:42:31;;;;;;;15.48;1.92;;;;;;;7.32;100.00;101677.44;5079813;28;20237;-57
2023/01/31 06:44:56;;;;;;;3.30;1.15;;;;;;;7.29;100.00;101676.91;5083576;28;20032;-51
2023/01/31 06:47:22;;;;;;;3.67;1.13;;;;;;;7.33;100.00;101673.84;5076498;28;20070;-55
2023/01/31 06:49:47;;;;;;;4.57;0.80;;;;;;;7.44;100.00;101664.94;5082368;28;20023;-54
2023/01/31 06:52:13;;;;;;;5.85;0.57;;;;;;;7.45;100.00;101673.69;5085146;28;20031;-52
2023/01/31 06:54:38;;;;;;;7.57;1.60;;;;;;;7.52;100.00;101665.06;5082797;28;20073;-50
2023/01/31 06:57:03;;;;;;;8.68;1.55;;;;;;;7.60;100.00;101659.91;5081956;28;20043;-52
2023/01/31 06:59:30;;;;;;;8.55;3.58;;;;;;;7.47;100.00;101658.56;5077959;28;20035;-52
2023/01/31 07:01:55;;;;;;;14.80;2.17;;;;;;;7.58;100.00;101663.66;5082932;28;20486;-54
2023/01/31 07:04:20;;;;;;;2.38;0.55;;;;;;;7.63;100.00;101658.78;5088285;28;20039;-56
2023/01/31 07:06:46;;;;;;;4.78;0.73;;;;;;;7.70;100.00;101648.50;5098349;28;20212;-53
2023/01/31 07:09:11;;;;;;;4.85;1.65;;;;;;;7.57;100.00;101648.81;5089640;28;20039;-52
2023/01/31 07:11:37;;;;;;;3.17;1.05;;;;;;;7.52;100.00;101638.69;5087397;28;20096;-57
2023/01/31 07:14:03;;;;;;;9.60;0.98;;;;;;;7.53;100.00;101642.13;5085853;28;20050;-55
2023/01/31 07:16:28;;;;;;;9.82;1.48;;;;;;;7.50;100.00;101645.06;5079366;28;20373;-53
2023/01/31 07:18:54;;;;;;;6.60;0.82;;;;;;;7.58;100.00;101645.19;5083334;28;20023;-50
2023/01/31 07:21:21;;;;;;;3.40;0.45;;;;;;;7.51;100.00;101649.38;5083204;28;20028;-56
2023/01/31 07:23:46;;;;;;;6.00;1.92;;;;;;;7.49;100.00;101660.06;5087856;28;20036;-51
2023/01/31 07:26:12;;;;;;;7.00;1.85;;;;;;;7.48;100.00;101663.66;5084840;28;20420;-49
2023/01/31 07:28:38;;;;;;;2.83;0.98;;;;;;;7.49;100.00;101652.16;5082793;28;20024;-51
2023/01/31 07:31:10;;;;;;;8.20;1.60;;;;;;;7.54;100.00;101659.66;5083641;28;20115;-54
2023/01/31 07:33:36;;;;;;;5.75;0.88;;;;;;;7.56;100.00;101655.03;5078398;28;20094;-53
2023/01/31 07:36:03;;;;;;;7.68;0.75;;;;;;;7.65;100.00;101667.41;5092828;28;20020;-53
2023/01/31 07:38:32;;;;;;;12.50;2.72;;;;;;;7.70;100.00;101657.25;5080418;28;20036;-54
2023/01/31 07:41:02;;;;;;;18.98;2.08;;;;;;;7.73;100.00;101659.59;5080716;28;20035;-53
2023/01/31 07:43:28;;;;;;;7.97;1.60;;;;;;;7.72;100.00;101657.94;5093124;28;20051;-49
2023/01/31 07:45:54;;;;;;;4.63;0.73;;;;;;;7.73;100.00;101656.13;5083800;28;20790;-51
2023/01/31 07:48:22;;;;;;;12.43;1.92;;;;;;;7.68;100.00;101661.84;5084876;28;20051;-56
2023/01/31 07:50:50;;;;;;;9.95;2.92;;;;;;;7.67;100.00;101656.69;5086884;28;20306;-53
2023/01/31 07:53:15;;;;;;;13.88;1.67;;;;;;;7.64;100.00;101645.47;5094092;28;20020;-53
2023/01/31 07:55:41;;;;;;;8.13;1.20;;;;;;;7.64;100.00;101644.59;5087862;28;20026;-53
2023/01/31 07:58:06;;;;;;;12.18;1.65;;;;;;;7.59;100.00;101644.19;5090094;28;20055;-54
2023/01/31 08:03:34;;;;;;;6.45;0.63;;;;;;;7.68;100.00;101635.44;5089526;28;20457;-52
2023/01/31 08:06:08;;;;;;;21.40;2.97;;;;;;;7.63;100.00;101641.13;5094141;28;20031;-54
2023/01/31 08:08:34;;;;;;;4.43;0.80;;;;;;;7.67;100.00;101643.47;5084702;28;20024;-50
2023/01/31 08:11:00;;;;;;;5.65;1.73;;;;;;;7.69;100.00;101645.00;5083130;28;20758;-55
2023/01/31 08:13:25;;;;;;;7.07;0.88;;;;;;;7.71;100.00;101647.50;5086287;28;20026;-52
2023/01/31 08:15:52;;;;;;;6.35;1.13;;;;;;;7.74;100.00;101636.66;5083108;28;20156;-53
2023/01/31 08:18:18;;;;;;;3.72;0.80;;;;;;;7.71;100.00;101642.22;5080150;28;20112;-52
2023/01/31 08:20:43;;;;;;;6.07;0.57;;;;;;;7.75;100.00;101655.00;5090488;28;20107;-54
2023/01/31 08:23:09;;;;;;;7.30;1.60;;;;;;;7.73;100.00;101661.41;5087823;28;20032;-54
2023/01/31 08:25:35;;;;;;;6.70;2.40;;;;;;;7.82;100.00;101649.97;5075933;28;20489;-53
2023/01/31 08:28:00;;;;;;;1.75;0.55;;;;;;;7.79;100.00;101651.09;5082866;28;20515;-52
2023/01/31 08:30:27;;;;;;;9.60;1.40;;;;;;;7.83;100.00;101639.28;5081385;28;20058;-54
2023/01/31 08:32:52;;;;;;;5.32;1.10;;;;;;;7.99;100.00;101649.22;5083993;28;20097;-50
2023/01/31 08:35:18;;;;;;;2.10;0.60;;;;;;;8.04;100.00;101640.84;5088216;28;20334;-54
2023/01/31 08:37:43;;;;;;;4.85;1.33;;;;;;;8.07;100.00;101638.75;5082746;28;20047;-54
2023/01/31 08:40:09;;;;;;;5.53;1.10;;;;;;;8.02;100.00;101633.06;5092962;28;20126;-50
2023/01/31 08:42:34;;;;;;;8.65;3.22;;;;;;;8.00;100.00;101636.84;5085887;28;20072;-51
2023/01/31 08:45:00;;;;;;;5.20;1.70;;;;;;;8.10;100.00;101629.69;5088292;28;20036;-54
2023/01/31 08:47:25;;;;;;;5.03;0.70;;;;;;;8.09;100.00;101630.69;5081574;28;20040;-50
2023/01/31 08:49:50;;;;;;;3.03;1.38;;;;;;;8.14;100.00;101624.97;5083279;28;20050;-51
2023/01/31 08:52:16;;;;;;;12.13;1.77;;;;;;;8.21;100.00;101640.09;5082866;28;20028;-56
2023/01/31 08:54:41;;;;;;;5.60;2.05;;;;;;;8.25;100.00;101624.75;5085311;28;20083;-54
2023/01/31 08:57:06;;;;;;;9.80;1.70;;;;;;;8.36;100.00;101623.72;5081317;28;20048;-56
2023/01/31 08:59:32;;;;;;;6.00;0.43;;;;;;;8.52;100.00;101623.94;5094712;28;20038;-53
2023/01/31 09:01:57;;;;;;;6.03;0.50;;;;;;;8.62;100.00;101621.22;5085499;28;20146;-51
2023/01/31 09:04:22;;;;;;;3.40;1.48;;;;;;;8.71;100.00;101618.50;5084112;28;20035;-54
2023/01/31 09:06:48;;;;;;;7.47;0.80;;;;;;;8.72;100.00;101622.81;5090297;28;20020;-54
2023/01/31 09:09:14;;;;;;;6.72;1.30;;;;;;;8.80;100.00;101619.41;5088567;28;20028;-53
2023/01/31 09:11:39;;;;;;;18.10;1.92;;;;;;;8.84;100.00;101626.06;5088899;28;20041;-54
2023/01/31 09:14:05;;;;;;;5.60;2.30;;;;;;;8.87;100.00;101609.06;5078482;28;20080;-52
2023/01/31 09:16:30;;;;;;;3.20;0.93;;;;;;;8.82;100.00;101622.72;5091607;28;20111;-53
2023/01/31 09:18:56;;;;;;;6.38;0.45;;;;;;;8.83;100.00;101616.47;5086225;28;20028;-52
2023/01/31 09:21:23;;;;;;;6.82;0.75;;;;;;;8.83;100.00;101626.19;5084602;28;20028;-56
2023/01/31 09:23:54;;;;;;;7.25;1.20;;;;;;;8.79;100.00;101623.03;5085087;28;20051;-51
2023/01/31 09:26:19;;;;;;;5.55;1.10;;;;;;;8.70;100.00;101626.59;5077985;28;20059;-54
2023/01/31 09:28:44;;;;;;;6.30;0.80;;;;;;;8.87;100.00;101630.22;5089381;28;20063;-53
2023/01/31 09:31:15;;;;;;;5.50;1.95;;;;;;;8.96;100.00;101624.03;5082525;28;20044;-49
2023/01/31 09:33:41;;;;;;;6.45;1.83;;;;;;;8.97;100.00;101630.13;5088390;28;20028;-52
2023/01/31 09:36:09;;;;;;;5.15;1.05;;;;;;;8.98;100.00;101632.63;5076478;28;20032;-52
2023/01/31 09:38:35;;;;;;;3.47;0.68;;;;;;;9.01;100.00;101626.19;5081150;28;20052;-55
2023/01/31 09:41:04;;;;;;;5.85;0.70;;;;;;;9.00;100.00;101624.53;5078569;28;20055;-55
2023/01/31 09:43:36;;;;;;;7.70;2.50;;;;;;;9.06;100.00;101629.22;5090851;28;20503;-51
2023/01/31 09:46:05;;;;;;;6.53;2.25;;;;;;;9.07;100.00;101638.81;5083708;28;20027;-52
2023/01/31 09:48:34;;;;;;;3.60;2.63;;;;;;;9.11;100.00;101645.44;5079742;28;20060;-53
2023/01/31 09:51:01;;;;;;;7.78;1.98;;;;;;;9.07;100.00;101657.34;5085805;28;20016;-52
2023/01/31 09:53:32;;;;;;;4.35;1.30;;;;;;;8.99;100.00;101652.00;5085339;28;20088;-54
2023/01/31 09:56:31;;;;;;;4.55;1.00;;;;;;;8.98;100.00;101652.94;5078969;28;20026;-53
2023/01/31 09:59:26;;;;;;;4.28;1.38;;;;;;;9.01;100.00;101647.34;5076663;28;20047;-54
2023/01/31 10:02:16;;;;;;;4.18;1.48;;;;;;;9.03;100.00;101646.22;5083269;28;20066;-52
2023/01/31 10:05:03;;;;;;;7.63;1.05;;;;;;;9.06;100.00;101656.53;5072643;28;20028;-53
2023/01/31 10:07:31;;;;;;;3.15;0.88;;;;;;;9.24;100.00;101648.56;5081832;28;20044;-53
2023/01/31 10:10:00;;;;;;;7.85;1.63;;;;;;;9.45;100.00;101647.34;5081415;28;20036;-55
2023/01/31 10:12:45;;;;;;;4.93;1.50;;;;;;;9.61;100.00;101650.13;5070519;28;20456;-52
2023/01/31 10:15:20;;;;;;;3.50;1.05;;;;;;;9.64;100.00;101646.34;5090840;28;20696;-51
2023/01/31 10:17:51;;;;;;;5.22;0.82;;;;;;;9.74;100.00;101631.19;5091567;28;20493;-53
2023/01/31 10:20:33;;;;;;;6.20;2.20;;;;;;;9.86;100.00;101637.88;5087054;28;20043;-54
2023/01/31 10:23:06;;;;;;;0.60;0.52;;;;;;;9.98;100.00;101641.88;5086388;28;20031;-56
2023/01/31 10:25:35;;;;;;;2.78;0.30;;;;;;;10.09;100.00;101624.88;5083575;28;20032;-54
2023/01/31 10:28:25;;;;;;;1.75;0.70;;;;;;;10.02;100.00;101637.13;5086848;28;20028;-56
2023/01/31 10:31:21;;;;;;;2.00;1.05;;;;;;;10.19;100.00;101633.50;5076786;28;20131;-53
2023/01/31 10:34:19;;;;;;;5.80;0.32;;;;;;;10.33;100.00;101624.16;5078567;28;20110;-53
2023/01/31 10:36:56;;;;;;;2.10;0.70;;;;;;;10.36;100.00;101634.44;5077127;28;20385;-55
2023/01/31 10:39:31;;;;;;;1.58;0.52;;;;;;;10.42;100.00;101636.44;5081174;28;20034;-51
2023/01/31 10:42:13;;;;;;;4.38;0.95;;;;;;;10.52;100.00;101646.91;5082741;28;20484;-56
2023/01/31 10:44:41;;;;;;;2.90;1.17;;;;;;;10.67;100.00;101636.50;5084412;28;20028;-56
2023/01/31 10:47:13;;;;;;;7.38;2.40;;;;;;;10.82;100.00;101618.13;5088400;28;20063;-53
2023/01/31 10:49:38;;;;;;;;;;;;;;;10.98;100.00;101620.78;5083727;28;20032;-50
2023/01/31 10:52:33;;;;;;;2.47;0.40;;;;;;;11.19;100.00;101622.91;5084882;28;19919;-53
2023/01/31 10:55:09;;;;;;;4.50;0.85;;;;;;;11.28;100.00;101621.94;5076937;28;20497;-53
2023/01/31 10:57:35;;;;;;;4.20;1.48;;;;;;;11.05;100.00;101618.31;5093067;28;20024;-54
2023/01/31 11:00:01;;;;;;;4.82;1.90;;;;;;;10.80;100.00;101604.19;5089615;28;20039;-54
2023/01/31 11:02:28;;;;;;;6.15;1.85;;;;;;;10.66;100.00;101613.59;5090413;28;20086;-54
2023/01/31 11:04:56;;;;;;;4.20;1.48;;;;;;;10.72;100.00;101609.50;5086453;28;20056;-53
2023/01/31 11:07:22;;;;;;;2.83;0.77;;;;;;;10.89;100.00;101604.03;5083144;28;20032;-55
2023/01/31 11:09:52;;;;;;;1.15;1.08;;;;;;;10.89;100.00;101611.16;5097255;28;20063;-56
2023/01/31 11:12:20;;;;;;;4.22;0.20;;;;;;;10.69;100.00;101606.16;5078877;28;20051;-50
2023/01/31 11:15:15;;;;;;;1.45;0.38;;;;;;;10.81;100.00;101616.44;5080915;28;20058;-55
2023/01/31 11:17:42;;;;;;;2.05;0.22;;;;;;;11.04;100.00;101614.78;5079903;28;20051;-54
2023/01/31 11:20:24;;;;;;;2.92;0.30;;;;;;;11.15;100.00;101608.31;5076411;28;20120;-53
2023/01/31 11:22:50;;;;;;;4.40;0.75;;;;;;;11.31;100.00;101615.47;5073762;28;20182;-55
2023/01/31 11:25:22;;;;;;;3.85;0.30;;;;;;;11.41;100.00;101613.44;5078135;28;20498;-52
2023/01/31 11:27:48;;;;;;;;;;;;;;;11.49;100.00;101600.16;5091677;28;20061;-55
2023/01/31 11:30:24;;;;;;;3.00;1.02;;;;;;;11.36;100.00;101599.84;5086233;28;20368;-53
2023/01/31 11:32:50;;;;;;;0.22;0.20;;;;;;;11.35;100.00;101592.88;5087253;28;20490;-51
2023/01/31 11:35:15;;;;;;;0.60;0.10;;;;;;;11.34;100.00;101580.59;5087578;28;20047;-54
2023/01/31 11:38:02;;;;;;;2.72;0.50;;;;;;;11.31;100.00;101581.75;5089719;28;20025;-51
2023/01/31 11:40:34;;;;;;;1.08;0.10;;;;;;;11.27;100.00;101577.78;5087605;28;20039;-55